sensor_id;sensor_type;location;lat;lon;timestamp;P1;durP1;ratioP1;P2;durP2;ratioP2
32826;SDS011;51059;42.058;27.986;2023-07-02T00:00:38;9.03;;;5.50;;
32826;SDS011;51059;42.058;27.986;2023-07-02T00:03:04;5.27;;;4.77;;
32826;SDS011;51059;42.058;27.986;2023-07-02T00:05:30;4.53;;;4.07;;
32826;SDS011;51059;42.058;27.986;2023-07-02T00:07:57;6.07;;;4.73;;
32826;SDS011;51059;42.058;27.986;2023-07-02T00:10:24;5.07;;;4.57;;
32826;SDS011;51059;42.058;27.986;2023-07-02T00:12:50;8.87;;;5.03;;
32826;SDS011;51059;42.058;27.986;2023-07-02T00:15:16;5.60;;;5.00;;
32826;SDS011;51059;42.058;27.986;2023-07-02T00:17:41;5.57;;;4.67;;
32826;SDS011;51059;42.058;27.986;2023-07-02T00:20:08;8.57;;;5.63;;
32826;SDS011;51059;42.058;27.986;2023-07-02T00:22:39;6.23;;;5.43;;
32826;SDS011;51059;42.058;27.986;2023-07-02T00:25:08;8.40;;;5.13;;
32826;SDS011;51059;42.058;27.986;2023-07-02T00:27:34;5.93;;;4.83;;
32826;SDS011;51059;42.058;27.986;2023-07-02T00:30:01;9.40;;;5.00;;
32826;SDS011;51059;42.058;27.986;2023-07-02T00:32:27;5.87;;;5.17;;
32826;SDS011;51059;42.058;27.986;2023-07-02T00:34:53;6.37;;;4.70;;
32826;SDS011;51059;42.058;27.986;2023-07-02T00:37:19;5.47;;;4.97;;
32826;SDS011;51059;42.058;27.986;2023-07-02T00:39:44;7.93;;;5.07;;
32826;SDS011;51059;42.058;27.986;2023-07-02T00:42:11;5.93;;;4.80;;
32826;SDS011;51059;42.058;27.986;2023-07-02T00:44:37;5.77;;;4.83;;
32826;SDS011;51059;42.058;27.986;2023-07-02T00:47:11;5.77;;;4.77;;
32826;SDS011;51059;42.058;27.986;2023-07-02T00:49:37;7.53;;;4.40;;
32826;SDS011;51059;42.058;27.986;2023-07-02T00:52:03;6.57;;;4.80;;
32826;SDS011;51059;42.058;27.986;2023-07-02T00:54:30;7.43;;;5.00;;
32826;SDS011;51059;42.058;27.986;2023-07-02T00:56:56;6.67;;;5.07;;
32826;SDS011;51059;42.058;27.986;2023-07-02T00:59:23;6.37;;;5.13;;
32826;SDS011;51059;42.058;27.986;2023-07-02T01:01:49;7.80;;;5.20;;
32826;SDS011;51059;42.058;27.986;2023-07-02T01:04:16;5.93;;;4.83;;
32826;SDS011;51059;42.058;27.986;2023-07-02T01:06:43;8.93;;;5.57;;
32826;SDS011;51059;42.058;27.986;2023-07-02T01:09:09;5.80;;;4.93;;
32826;SDS011;51059;42.058;27.986;2023-07-02T01:11:45;7.40;;;5.43;;
32826;SDS011;51059;42.058;27.986;2023-07-02T01:14:16;8.10;;;5.20;;
32826;SDS011;51059;42.058;27.986;2023-07-02T01:16:44;5.33;;;4.77;;
32826;SDS011;51059;42.058;27.986;2023-07-02T01:19:18;8.30;;;4.73;;
32826;SDS011;51059;42.058;27.986;2023-07-02T01:21:44;5.80;;;5.13;;
32826;SDS011;51059;42.058;27.986;2023-07-02T01:24:10;8.23;;;4.47;;
32826;SDS011;51059;42.058;27.986;2023-07-02T01:26:37;7.83;;;4.70;;
32826;SDS011;51059;42.058;27.986;2023-07-02T01:29:19;6.70;;;5.20;;
32826;SDS011;51059;42.058;27.986;2023-07-02T01:31:45;5.63;;;5.03;;
32826;SDS011;51059;42.058;27.986;2023-07-02T01:34:11;6.27;;;4.87;;
32826;SDS011;51059;42.058;27.986;2023-07-02T01:36:37;6.10;;;4.90;;
32826;SDS011;51059;42.058;27.986;2023-07-02T01:39:03;8.10;;;4.80;;
32826;SDS011;51059;42.058;27.986;2023-07-02T01:41:31;7.33;;;5.00;;
32826;SDS011;51059;42.058;27.986;2023-07-02T01:43:57;7.13;;;5.13;;
32826;SDS011;51059;42.058;27.986;2023-07-02T01:46:23;9.80;;;5.63;;
32826;SDS011;51059;42.058;27.986;2023-07-02T01:48:49;9.27;;;5.47;;
32826;SDS011;51059;42.058;27.986;2023-07-02T01:51:15;7.57;;;5.43;;
32826;SDS011;51059;42.058;27.986;2023-07-02T01:53:42;6.67;;;5.37;;
32826;SDS011;51059;42.058;27.986;2023-07-02T01:56:09;7.17;;;5.23;;
32826;SDS011;51059;42.058;27.986;2023-07-02T01:58:35;7.43;;;5.60;;
32826;SDS011;51059;42.058;27.986;2023-07-02T02:01:02;7.33;;;5.60;;
32826;SDS011;51059;42.058;27.986;2023-07-02T02:03:28;7.63;;;5.40;;
32826;SDS011;51059;42.058;27.986;2023-07-02T02:05:54;8.60;;;5.20;;
32826;SDS011;51059;42.058;27.986;2023-07-02T02:08:20;6.10;;;5.20;;
32826;SDS011;51059;42.058;27.986;2023-07-02T02:10:46;6.93;;;5.77;;
32826;SDS011;51059;42.058;27.986;2023-07-02T02:13:12;7.00;;;5.10;;
32826;SDS011;51059;42.058;27.986;2023-07-02T02:15:38;6.80;;;5.10;;
32826;SDS011;51059;42.058;27.986;2023-07-02T02:18:04;6.50;;;4.93;;
32826;SDS011;51059;42.058;27.986;2023-07-02T02:20:30;9.80;;;5.20;;
32826;SDS011;51059;42.058;27.986;2023-07-02T02:22:56;5.73;;;4.90;;
32826;SDS011;51059;42.058;27.986;2023-07-02T02:25:24;5.40;;;4.47;;
32826;SDS011;51059;42.058;27.986;2023-07-02T02:27:50;5.07;;;4.47;;
32826;SDS011;51059;42.058;27.986;2023-07-02T02:30:15;6.57;;;4.20;;
32826;SDS011;51059;42.058;27.986;2023-07-02T02:32:41;5.30;;;4.32;;
32826;SDS011;51059;42.058;27.986;2023-07-02T02:35:07;5.47;;;4.50;;
32826;SDS011;51059;42.058;27.986;2023-07-02T02:37:34;5.13;;;4.63;;
32826;SDS011;51059;42.058;27.986;2023-07-02T02:40:01;8.37;;;4.60;;
32826;SDS011;51059;42.058;27.986;2023-07-02T02:42:27;6.77;;;4.57;;
32826;SDS011;51059;42.058;27.986;2023-07-02T02:44:52;5.90;;;4.93;;
32826;SDS011;51059;42.058;27.986;2023-07-02T02:47:18;7.20;;;4.28;;
32826;SDS011;51059;42.058;27.986;2023-07-02T02:49:44;4.73;;;4.33;;
32826;SDS011;51059;42.058;27.986;2023-07-02T02:52:10;6.93;;;3.53;;
32826;SDS011;51059;42.058;27.986;2023-07-02T02:54:36;5.60;;;3.60;;
32826;SDS011;51059;42.058;27.986;2023-07-02T02:57:02;6.80;;;3.47;;
32826;SDS011;51059;42.058;27.986;2023-07-02T02:59:28;8.93;;;4.00;;
32826;SDS011;51059;42.058;27.986;2023-07-02T03:01:54;7.13;;;3.72;;
32826;SDS011;51059;42.058;27.986;2023-07-02T03:04:20;6.50;;;3.50;;
32826;SDS011;51059;42.058;27.986;2023-07-02T03:06:50;5.82;;;3.63;;
32826;SDS011;51059;42.058;27.986;2023-07-02T03:09:18;7.43;;;3.60;;
32826;SDS011;51059;42.058;27.986;2023-07-02T03:11:45;6.00;;;3.93;;
32826;SDS011;51059;42.058;27.986;2023-07-02T03:14:11;4.53;;;3.83;;
32826;SDS011;51059;42.058;27.986;2023-07-02T03:16:37;6.32;;;3.97;;
32826;SDS011;51059;42.058;27.986;2023-07-02T03:19:03;5.55;;;4.00;;
32826;SDS011;51059;42.058;27.986;2023-07-02T03:21:29;6.40;;;3.83;;
32826;SDS011;51059;42.058;27.986;2023-07-02T03:23:56;5.13;;;3.50;;
32826;SDS011;51059;42.058;27.986;2023-07-02T03:26:22;5.73;;;3.80;;
32826;SDS011;51059;42.058;27.986;2023-07-02T03:28:49;4.95;;;3.80;;
32826;SDS011;51059;42.058;27.986;2023-07-02T03:31:14;3.35;;;3.05;;
32826;SDS011;51059;42.058;27.986;2023-07-02T03:33:40;5.27;;;3.10;;
32826;SDS011;51059;42.058;27.986;2023-07-02T03:36:06;6.32;;;3.28;;
32826;SDS011;51059;42.058;27.986;2023-07-02T03:38:32;5.03;;;3.15;;
32826;SDS011;51059;42.058;27.986;2023-07-02T03:40:58;4.03;;;3.00;;
32826;SDS011;51059;42.058;27.986;2023-07-02T03:43:24;3.88;;;2.75;;
32826;SDS011;51059;42.058;27.986;2023-07-02T03:45:52;3.78;;;2.40;;
32826;SDS011;51059;42.058;27.986;2023-07-02T03:48:18;3.85;;;2.63;;
32826;SDS011;51059;42.058;27.986;2023-07-02T03:50:44;2.40;;;2.17;;
32826;SDS011;51059;42.058;27.986;2023-07-02T03:53:11;3.53;;;2.50;;
32826;SDS011;51059;42.058;27.986;2023-07-02T03:55:36;5.85;;;2.50;;
32826;SDS011;51059;42.058;27.986;2023-07-02T03:58:04;6.95;;;2.53;;
32826;SDS011;51059;42.058;27.986;2023-07-02T04:00:30;5.03;;;2.50;;
32826;SDS011;51059;42.058;27.986;2023-07-02T04:02:56;4.18;;;2.38;;
32826;SDS011;51059;42.058;27.986;2023-07-02T04:05:22;2.50;;;2.30;;
32826;SDS011;51059;42.058;27.986;2023-07-02T04:07:47;2.95;;;2.05;;
32826;SDS011;51059;42.058;27.986;2023-07-02T04:10:13;4.13;;;2.10;;
32826;SDS011;51059;42.058;27.986;2023-07-02T04:12:39;5.72;;;2.20;;
32826;SDS011;51059;42.058;27.986;2023-07-02T04:15:05;4.60;;;2.25;;
32826;SDS011;51059;42.058;27.986;2023-07-02T04:17:33;3.45;;;2.22;;
32826;SDS011;51059;42.058;27.986;2023-07-02T04:20:00;8.75;;;2.00;;
32826;SDS011;51059;42.058;27.986;2023-07-02T04:22:26;3.58;;;1.80;;
32826;SDS011;51059;42.058;27.986;2023-07-02T04:24:52;2.90;;;2.38;;
32826;SDS011;51059;42.058;27.986;2023-07-02T04:27:17;4.32;;;2.15;;
32826;SDS011;51059;42.058;27.986;2023-07-02T04:29:44;3.78;;;1.80;;
32826;SDS011;51059;42.058;27.986;2023-07-02T04:32:09;3.47;;;1.88;;
32826;SDS011;51059;42.058;27.986;2023-07-02T04:34:35;3.90;;;1.90;;
32826;SDS011;51059;42.058;27.986;2023-07-02T04:37:05;5.13;;;2.13;;
32826;SDS011;51059;42.058;27.986;2023-07-02T04:39:31;3.17;;;1.90;;
32826;SDS011;51059;42.058;27.986;2023-07-02T04:41:57;3.45;;;1.98;;
32826;SDS011;51059;42.058;27.986;2023-07-02T04:44:23;7.63;;;2.60;;
32826;SDS011;51059;42.058;27.986;2023-07-02T04:46:57;4.03;;;2.05;;
32826;SDS011;51059;42.058;27.986;2023-07-02T04:49:24;8.55;;;2.22;;
32826;SDS011;51059;42.058;27.986;2023-07-02T04:51:50;4.43;;;2.00;;
32826;SDS011;51059;42.058;27.986;2023-07-02T04:54:16;4.80;;;2.30;;
32826;SDS011;51059;42.058;27.986;2023-07-02T04:56:42;3.47;;;1.88;;
32826;SDS011;51059;42.058;27.986;2023-07-02T04:59:07;5.97;;;2.00;;
32826;SDS011;51059;42.058;27.986;2023-07-02T05:01:33;2.13;;;2.00;;
32826;SDS011;51059;42.058;27.986;2023-07-02T05:03:58;2.83;;;2.05;;
32826;SDS011;51059;42.058;27.986;2023-07-02T05:06:24;4.03;;;1.95;;
32826;SDS011;51059;42.058;27.986;2023-07-02T05:08:50;2.90;;;2.20;;
32826;SDS011;51059;42.058;27.986;2023-07-02T05:11:16;6.88;;;2.00;;
32826;SDS011;51059;42.058;27.986;2023-07-02T05:13:42;4.70;;;1.90;;
32826;SDS011;51059;42.058;27.986;2023-07-02T05:16:08;3.70;;;1.90;;
32826;SDS011;51059;42.058;27.986;2023-07-02T05:18:36;4.70;;;2.10;;
32826;SDS011;51059;42.058;27.986;2023-07-02T05:21:02;3.63;;;1.80;;
32826;SDS011;51059;42.058;27.986;2023-07-02T05:23:27;3.05;;;2.15;;
32826;SDS011;51059;42.058;27.986;2023-07-02T05:25:53;8.25;;;2.60;;
32826;SDS011;51059;42.058;27.986;2023-07-02T05:28:19;5.45;;;2.20;;
32826;SDS011;51059;42.058;27.986;2023-07-02T05:30:44;6.28;;;2.67;;
32826;SDS011;51059;42.058;27.986;2023-07-02T05:33:10;9.35;;;2.40;;
32826;SDS011;51059;42.058;27.986;2023-07-02T05:35:36;7.18;;;2.15;;
32826;SDS011;51059;42.058;27.986;2023-07-02T05:38:02;3.55;;;2.10;;
32826;SDS011;51059;42.058;27.986;2023-07-02T05:40:28;7.43;;;1.92;;
32826;SDS011;51059;42.058;27.986;2023-07-02T05:42:54;3.88;;;1.95;;
32826;SDS011;51059;42.058;27.986;2023-07-02T05:45:20;3.88;;;2.47;;
32826;SDS011;51059;42.058;27.986;2023-07-02T05:47:46;2.97;;;2.13;;
32826;SDS011;51059;42.058;27.986;2023-07-02T05:50:12;6.95;;;2.60;;
32826;SDS011;51059;42.058;27.986;2023-07-02T05:52:38;4.63;;;2.25;;
32826;SDS011;51059;42.058;27.986;2023-07-02T05:55:04;7.03;;;3.00;;
32826;SDS011;51059;42.058;27.986;2023-07-02T05:57:30;2.85;;;2.33;;
32826;SDS011;51059;42.058;27.986;2023-07-02T05:59:56;3.80;;;2.38;;
32826;SDS011;51059;42.058;27.986;2023-07-02T06:02:23;3.90;;;2.40;;
32826;SDS011;51059;42.058;27.986;2023-07-02T06:04:49;5.85;;;2.42;;
32826;SDS011;51059;42.058;27.986;2023-07-02T06:07:16;3.13;;;2.20;;
32826;SDS011;51059;42.058;27.986;2023-07-02T06:09:42;3.13;;;2.20;;
32826;SDS011;51059;42.058;27.986;2023-07-02T06:12:08;2.97;;;2.25;;
32826;SDS011;51059;42.058;27.986;2023-07-02T06:14:34;6.20;;;2.17;;
32826;SDS011;51059;42.058;27.986;2023-07-02T06:17:01;4.88;;;2.42;;
32826;SDS011;51059;42.058;27.986;2023-07-02T06:19:31;5.13;;;3.20;;
32826;SDS011;51059;42.058;27.986;2023-07-02T06:21:57;15.02;;;2.63;;
32826;SDS011;51059;42.058;27.986;2023-07-02T06:24:24;6.28;;;2.55;;
32826;SDS011;51059;42.058;27.986;2023-07-02T06:26:50;7.07;;;2.80;;
32826;SDS011;51059;42.058;27.986;2023-07-02T06:29:16;5.65;;;2.75;;
32826;SDS011;51059;42.058;27.986;2023-07-02T06:31:41;5.07;;;2.80;;
32826;SDS011;51059;42.058;27.986;2023-07-02T06:34:07;8.05;;;2.40;;
32826;SDS011;51059;42.058;27.986;2023-07-02T06:36:34;4.10;;;2.50;;
32826;SDS011;51059;42.058;27.986;2023-07-02T06:38:59;4.35;;;2.53;;
32826;SDS011;51059;42.058;27.986;2023-07-02T06:41:25;4.47;;;2.45;;
32826;SDS011;51059;42.058;27.986;2023-07-02T06:43:52;5.05;;;2.90;;
32826;SDS011;51059;42.058;27.986;2023-07-02T06:46:17;9.25;;;2.80;;
32826;SDS011;51059;42.058;27.986;2023-07-02T06:48:43;5.13;;;2.60;;
32826;SDS011;51059;42.058;27.986;2023-07-02T06:51:09;5.72;;;2.63;;
32826;SDS011;51059;42.058;27.986;2023-07-02T06:53:37;4.32;;;2.80;;
32826;SDS011;51059;42.058;27.986;2023-07-02T06:56:03;7.93;;;3.05;;
32826;SDS011;51059;42.058;27.986;2023-07-02T06:58:30;3.20;;;2.90;;
32826;SDS011;51059;42.058;27.986;2023-07-02T07:00:57;6.15;;;2.72;;
32826;SDS011;51059;42.058;27.986;2023-07-02T07:03:22;6.68;;;3.00;;
32826;SDS011;51059;42.058;27.986;2023-07-02T07:05:49;5.75;;;2.70;;
32826;SDS011;51059;42.058;27.986;2023-07-02T07:08:15;4.03;;;2.85;;
32826;SDS011;51059;42.058;27.986;2023-07-02T07:10:41;5.38;;;3.10;;
32826;SDS011;51059;42.058;27.986;2023-07-02T07:13:07;4.75;;;2.92;;
32826;SDS011;51059;42.058;27.986;2023-07-02T07:15:33;5.85;;;3.28;;
32826;SDS011;51059;42.058;27.986;2023-07-02T07:18:02;4.20;;;3.00;;
32826;SDS011;51059;42.058;27.986;2023-07-02T07:20:28;5.65;;;3.40;;
32826;SDS011;51059;42.058;27.986;2023-07-02T07:22:54;6.78;;;3.03;;
32826;SDS011;51059;42.058;27.986;2023-07-02T07:25:20;8.38;;;3.30;;
32826;SDS011;51059;42.058;27.986;2023-07-02T07:27:46;8.05;;;3.30;;
32826;SDS011;51059;42.058;27.986;2023-07-02T07:30:12;5.80;;;3.13;;
32826;SDS011;51059;42.058;27.986;2023-07-02T07:32:40;4.03;;;3.10;;
32826;SDS011;51059;42.058;27.986;2023-07-02T07:35:07;4.65;;;3.10;;
32826;SDS011;51059;42.058;27.986;2023-07-02T07:37:33;10.55;;;3.67;;
32826;SDS011;51059;42.058;27.986;2023-07-02T07:39:58;5.72;;;3.15;;
32826;SDS011;51059;42.058;27.986;2023-07-02T07:42:24;5.80;;;3.35;;
32826;SDS011;51059;42.058;27.986;2023-07-02T07:44:50;6.45;;;3.35;;
32826;SDS011;51059;42.058;27.986;2023-07-02T07:47:16;6.80;;;3.13;;
32826;SDS011;51059;42.058;27.986;2023-07-02T07:49:42;6.30;;;3.15;;
32826;SDS011;51059;42.058;27.986;2023-07-02T07:52:07;6.65;;;3.92;;
32826;SDS011;51059;42.058;27.986;2023-07-02T07:54:34;4.72;;;3.38;;
32826;SDS011;51059;42.058;27.986;2023-07-02T07:57:01;5.45;;;3.70;;
32826;SDS011;51059;42.058;27.986;2023-07-02T07:59:27;8.77;;;3.65;;
32826;SDS011;51059;42.058;27.986;2023-07-02T08:01:53;4.97;;;3.05;;
32826;SDS011;51059;42.058;27.986;2023-07-02T08:04:19;7.20;;;2.80;;
32826;SDS011;51059;42.058;27.986;2023-07-02T08:06:45;4.40;;;3.40;;
32826;SDS011;51059;42.058;27.986;2023-07-02T08:09:11;4.68;;;3.35;;
32826;SDS011;51059;42.058;27.986;2023-07-02T08:11:37;5.13;;;3.38;;
32826;SDS011;51059;42.058;27.986;2023-07-02T08:14:03;3.75;;;3.17;;
32826;SDS011;51059;42.058;27.986;2023-07-02T08:16:30;3.40;;;3.10;;
32826;SDS011;51059;42.058;27.986;2023-07-02T08:18:55;5.55;;;3.13;;
32826;SDS011;51059;42.058;27.986;2023-07-02T08:21:21;3.40;;;3.10;;
32826;SDS011;51059;42.058;27.986;2023-07-02T08:23:46;4.60;;;2.95;;
32826;SDS011;51059;42.058;27.986;2023-07-02T08:26:12;3.47;;;3.17;;
32826;SDS011;51059;42.058;27.986;2023-07-02T08:28:39;5.57;;;3.13;;
32826;SDS011;51059;42.058;27.986;2023-07-02T08:31:05;7.38;;;3.40;;
32826;SDS011;51059;42.058;27.986;2023-07-02T08:33:32;5.07;;;3.40;;
32826;SDS011;51059;42.058;27.986;2023-07-02T08:35:57;4.57;;;3.60;;
32826;SDS011;51059;42.058;27.986;2023-07-02T08:38:23;8.55;;;3.70;;
32826;SDS011;51059;42.058;27.986;2023-07-02T08:40:49;5.22;;;3.70;;
32826;SDS011;51059;42.058;27.986;2023-07-02T08:43:15;5.30;;;3.50;;
32826;SDS011;51059;42.058;27.986;2023-07-02T08:45:44;5.70;;;4.03;;
32826;SDS011;51059;42.058;27.986;2023-07-02T08:48:10;5.65;;;3.55;;
32826;SDS011;51059;42.058;27.986;2023-07-02T08:50:37;6.88;;;3.95;;
32826;SDS011;51059;42.058;27.986;2023-07-02T08:53:03;5.70;;;4.30;;
32826;SDS011;51059;42.058;27.986;2023-07-02T08:55:29;6.68;;;4.53;;
32826;SDS011;51059;42.058;27.986;2023-07-02T08:57:55;4.75;;;3.90;;
32826;SDS011;51059;42.058;27.986;2023-07-02T09:00:23;9.00;;;4.30;;
32826;SDS011;51059;42.058;27.986;2023-07-02T09:02:48;6.00;;;4.32;;
32826;SDS011;51059;42.058;27.986;2023-07-02T09:05:14;7.05;;;4.50;;
32826;SDS011;51059;42.058;27.986;2023-07-02T09:07:51;7.70;;;4.57;;
32826;SDS011;51059;42.058;27.986;2023-07-02T09:10:28;10.32;;;4.68;;
32826;SDS011;51059;42.058;27.986;2023-07-02T09:13:04;11.88;;;4.50;;
32826;SDS011;51059;42.058;27.986;2023-07-02T09:15:38;5.93;;;4.85;;
32826;SDS011;51059;42.058;27.986;2023-07-02T09:18:23;8.23;;;4.85;;
32826;SDS011;51059;42.058;27.986;2023-07-02T09:20:53;8.15;;;5.28;;
32826;SDS011;51059;42.058;27.986;2023-07-02T09:23:19;8.52;;;5.90;;
32826;SDS011;51059;42.058;27.986;2023-07-02T09:25:45;7.95;;;5.78;;
32826;SDS011;51059;42.058;27.986;2023-07-02T09:28:17;7.90;;;5.78;;
32826;SDS011;51059;42.058;27.986;2023-07-02T09:30:53;13.48;;;6.20;;
32826;SDS011;51059;42.058;27.986;2023-07-02T09:33:19;6.18;;;5.55;;
32826;SDS011;51059;42.058;27.986;2023-07-02T09:35:45;8.48;;;5.97;;
32826;SDS011;51059;42.058;27.986;2023-07-02T09:38:12;7.03;;;5.72;;
32826;SDS011;51059;42.058;27.986;2023-07-02T09:40:39;9.65;;;6.00;;
32826;SDS011;51059;42.058;27.986;2023-07-02T09:43:10;12.25;;;5.63;;
32826;SDS011;51059;42.058;27.986;2023-07-02T09:45:36;8.50;;;5.30;;
32826;SDS011;51059;42.058;27.986;2023-07-02T09:48:02;7.03;;;5.68;;
32826;SDS011;51059;42.058;27.986;2023-07-02T09:50:35;6.75;;;5.90;;
32826;SDS011;51059;42.058;27.986;2023-07-02T09:53:03;7.32;;;5.53;;
32826;SDS011;51059;42.058;27.986;2023-07-02T09:55:28;5.90;;;5.30;;
32826;SDS011;51059;42.058;27.986;2023-07-02T09:57:54;9.18;;;5.43;;
32826;SDS011;51059;42.058;27.986;2023-07-02T10:00:20;5.78;;;5.10;;
32826;SDS011;51059;42.058;27.986;2023-07-02T10:02:49;8.93;;;5.32;;
32826;SDS011;51059;42.058;27.986;2023-07-02T10:05:31;7.15;;;5.57;;
32826;SDS011;51059;42.058;27.986;2023-07-02T10:07:59;9.35;;;5.00;;
32826;SDS011;51059;42.058;27.986;2023-07-02T10:10:36;7.10;;;5.20;;
32826;SDS011;51059;42.058;27.986;2023-07-02T10:13:03;9.07;;;5.78;;
32826;SDS011;51059;42.058;27.986;2023-07-02T10:15:30;7.97;;;5.38;;
32826;SDS011;51059;42.058;27.986;2023-07-02T10:17:57;7.93;;;5.00;;
32826;SDS011;51059;42.058;27.986;2023-07-02T10:23:18;10.27;;;5.22;;
32826;SDS011;51059;42.058;27.986;2023-07-02T10:25:44;6.50;;;4.75;;
32826;SDS011;51059;42.058;27.986;2023-07-02T10:28:19;5.50;;;4.95;;
32826;SDS011;51059;42.058;27.986;2023-07-02T10:30:47;5.70;;;5.10;;
32826;SDS011;51059;42.058;27.986;2023-07-02T10:33:16;8.20;;;5.30;;
32826;SDS011;51059;42.058;27.986;2023-07-02T10:35:43;9.35;;;5.40;;
32826;SDS011;51059;42.058;27.986;2023-07-02T10:38:25;7.00;;;5.25;;
32826;SDS011;51059;42.058;27.986;2023-07-02T10:40:55;12.25;;;5.38;;
32826;SDS011;51059;42.058;27.986;2023-07-02T10:43:25;14.13;;;5.22;;
32826;SDS011;51059;42.058;27.986;2023-07-02T10:45:51;7.40;;;5.53;;
32826;SDS011;51059;42.058;27.986;2023-07-02T10:48:17;10.52;;;5.18;;
32826;SDS011;51059;42.058;27.986;2023-07-02T10:50:42;8.70;;;5.28;;
32826;SDS011;51059;42.058;27.986;2023-07-02T10:53:18;13.95;;;5.85;;
32826;SDS011;51059;42.058;27.986;2023-07-02T10:55:44;6.88;;;4.93;;
32826;SDS011;51059;42.058;27.986;2023-07-02T10:58:11;7.75;;;4.90;;
32826;SDS011;51059;42.058;27.986;2023-07-02T11:00:51;12.15;;;5.57;;
32826;SDS011;51059;42.058;27.986;2023-07-02T11:03:20;5.53;;;5.00;;
32826;SDS011;51059;42.058;27.986;2023-07-02T11:05:47;5.90;;;4.95;;
32826;SDS011;51059;42.058;27.986;2023-07-02T11:08:13;6.57;;;5.50;;
32826;SDS011;51059;42.058;27.986;2023-07-02T11:10:39;8.05;;;5.53;;
32826;SDS011;51059;42.058;27.986;2023-07-02T11:13:18;13.63;;;5.40;;
32826;SDS011;51059;42.058;27.986;2023-07-02T11:15:44;7.28;;;5.18;;
32826;SDS011;51059;42.058;27.986;2023-07-02T11:18:15;6.25;;;4.90;;
32826;SDS011;51059;42.058;27.986;2023-07-02T11:20:41;8.50;;;5.57;;
32826;SDS011;51059;42.058;27.986;2023-07-02T11:23:17;10.23;;;5.43;;
32826;SDS011;51059;42.058;27.986;2023-07-02T11:25:42;22.25;;;6.63;;
32826;SDS011;51059;42.058;27.986;2023-07-02T11:28:19;7.10;;;5.38;;
32826;SDS011;51059;42.058;27.986;2023-07-02T11:30:49;12.18;;;5.47;;
32826;SDS011;51059;42.058;27.986;2023-07-02T11:33:14;8.85;;;5.75;;
32826;SDS011;51059;42.058;27.986;2023-07-02T11:35:41;10.63;;;6.13;;
32826;SDS011;51059;42.058;27.986;2023-07-02T11:38:09;9.25;;;5.15;;
32826;SDS011;51059;42.058;27.986;2023-07-02T11:40:36;7.18;;;6.00;;
32826;SDS011;51059;42.058;27.986;2023-07-02T11:43:02;10.38;;;5.85;;
32826;SDS011;51059;42.058;27.986;2023-07-02T11:45:28;7.50;;;6.07;;
32826;SDS011;51059;42.058;27.986;2023-07-02T11:47:54;10.75;;;5.70;;
32826;SDS011;51059;42.058;27.986;2023-07-02T11:50:20;10.77;;;5.53;;
32826;SDS011;51059;42.058;27.986;2023-07-02T11:52:46;7.40;;;5.82;;
32826;SDS011;51059;42.058;27.986;2023-07-02T11:55:13;9.68;;;5.50;;
32826;SDS011;51059;42.058;27.986;2023-07-02T11:57:39;6.38;;;5.43;;
32826;SDS011;51059;42.058;27.986;2023-07-02T12:00:05;9.48;;;5.72;;
32826;SDS011;51059;42.058;27.986;2023-07-02T12:02:31;7.82;;;5.88;;
32826;SDS011;51059;42.058;27.986;2023-07-02T12:04:57;6.43;;;5.57;;
32826;SDS011;51059;42.058;27.986;2023-07-02T12:07:24;7.32;;;6.03;;
32826;SDS011;51059;42.058;27.986;2023-07-02T12:09:50;7.82;;;5.95;;
32826;SDS011;51059;42.058;27.986;2023-07-02T12:12:15;8.73;;;6.22;;
32826;SDS011;51059;42.058;27.986;2023-07-02T12:14:41;9.10;;;5.80;;
32826;SDS011;51059;42.058;27.986;2023-07-02T12:17:09;10.38;;;5.93;;
32826;SDS011;51059;42.058;27.986;2023-07-02T12:19:38;7.50;;;5.57;;
32826;SDS011;51059;42.058;27.986;2023-07-02T12:22:04;8.63;;;5.70;;
32826;SDS011;51059;42.058;27.986;2023-07-02T12:24:30;8.70;;;5.35;;
32826;SDS011;51059;42.058;27.986;2023-07-02T12:26:56;7.35;;;5.47;;
32826;SDS011;51059;42.058;27.986;2023-07-02T12:29:21;9.88;;;5.50;;
32826;SDS011;51059;42.058;27.986;2023-07-02T12:31:47;11.75;;;6.32;;
32826;SDS011;51059;42.058;27.986;2023-07-02T12:34:13;8.38;;;6.40;;
32826;SDS011;51059;42.058;27.986;2023-07-02T12:36:40;12.90;;;7.05;;
32826;SDS011;51059;42.058;27.986;2023-07-02T12:39:06;12.07;;;7.75;;
32826;SDS011;51059;42.058;27.986;2023-07-02T12:41:32;10.85;;;8.20;;
32826;SDS011;51059;42.058;27.986;2023-07-02T12:43:58;9.80;;;7.88;;
32826;SDS011;51059;42.058;27.986;2023-07-02T12:46:25;9.93;;;7.93;;
32826;SDS011;51059;42.058;27.986;2023-07-02T12:48:51;12.63;;;8.77;;
32826;SDS011;51059;42.058;27.986;2023-07-02T12:51:18;10.93;;;7.93;;
32826;SDS011;51059;42.058;27.986;2023-07-02T12:53:43;14.38;;;8.68;;
32826;SDS011;51059;42.058;27.986;2023-07-02T12:56:09;13.90;;;9.57;;
32826;SDS011;51059;42.058;27.986;2023-07-02T12:58:35;12.40;;;8.88;;
32826;SDS011;51059;42.058;27.986;2023-07-02T13:01:01;11.13;;;9.10;;
32826;SDS011;51059;42.058;27.986;2023-07-02T13:03:29;12.50;;;9.55;;
32826;SDS011;51059;42.058;27.986;2023-07-02T13:05:55;10.50;;;9.38;;
32826;SDS011;51059;42.058;27.986;2023-07-02T13:08:20;10.07;;;9.02;;
32826;SDS011;51059;42.058;27.986;2023-07-02T13:10:47;14.10;;;9.90;;
32826;SDS011;51059;42.058;27.986;2023-07-02T13:13:13;10.95;;;9.73;;
32826;SDS011;51059;42.058;27.986;2023-07-02T13:15:39;11.50;;;10.32;;
32826;SDS011;51059;42.058;27.986;2023-07-02T13:18:05;12.00;;;10.80;;
32826;SDS011;51059;42.058;27.986;2023-07-02T13:20:30;12.50;;;10.77;;
32826;SDS011;51059;42.058;27.986;2023-07-02T13:22:56;14.27;;;10.60;;
32826;SDS011;51059;42.058;27.986;2023-07-02T13:25:24;12.05;;;10.75;;
32826;SDS011;51059;42.058;27.986;2023-07-02T13:27:50;15.85;;;11.77;;
32826;SDS011;51059;42.058;27.986;2023-07-02T13:30:16;13.18;;;11.88;;
32826;SDS011;51059;42.058;27.986;2023-07-02T13:32:42;18.23;;;11.63;;
32826;SDS011;51059;42.058;27.986;2023-07-02T13:35:08;13.15;;;11.82;;
32826;SDS011;51059;42.058;27.986;2023-07-02T13:37:34;13.90;;;10.88;;
32826;SDS011;51059;42.058;27.986;2023-07-02T13:39:59;13.18;;;11.65;;
32826;SDS011;51059;42.058;27.986;2023-07-02T13:42:26;13.75;;;11.00;;
32826;SDS011;51059;42.058;27.986;2023-07-02T13:44:54;12.70;;;10.65;;
32826;SDS011;51059;42.058;27.986;2023-07-02T13:47:21;14.80;;;11.85;;
32826;SDS011;51059;42.058;27.986;2023-07-02T13:49:47;22.23;;;10.80;;
32826;SDS011;51059;42.058;27.986;2023-07-02T13:52:15;12.60;;;10.70;;
32826;SDS011;51059;42.058;27.986;2023-07-02T13:54:41;15.88;;;10.38;;
32826;SDS011;51059;42.058;27.986;2023-07-02T13:57:06;14.65;;;10.18;;
32826;SDS011;51059;42.058;27.986;2023-07-02T13:59:38;11.48;;;10.27;;
32826;SDS011;51059;42.058;27.986;2023-07-02T14:02:04;15.25;;;11.32;;
32826;SDS011;51059;42.058;27.986;2023-07-02T14:04:30;15.07;;;11.27;;
32826;SDS011;51059;42.058;27.986;2023-07-02T14:06:56;16.35;;;10.77;;
32826;SDS011;51059;42.058;27.986;2023-07-02T14:09:22;15.10;;;10.73;;
32826;SDS011;51059;42.058;27.986;2023-07-02T14:11:48;17.20;;;11.27;;
32826;SDS011;51059;42.058;27.986;2023-07-02T14:14:14;15.40;;;11.57;;
32826;SDS011;51059;42.058;27.986;2023-07-02T14:16:40;18.55;;;12.32;;
32826;SDS011;51059;42.058;27.986;2023-07-02T14:19:06;16.20;;;12.10;;
32826;SDS011;51059;42.058;27.986;2023-07-02T14:21:32;16.38;;;11.48;;
32826;SDS011;51059;42.058;27.986;2023-07-02T14:23:58;20.63;;;12.70;;
32826;SDS011;51059;42.058;27.986;2023-07-02T14:26:24;17.73;;;12.82;;
32826;SDS011;51059;42.058;27.986;2023-07-02T14:28:50;15.48;;;12.85;;
32826;SDS011;51059;42.058;27.986;2023-07-02T14:31:17;19.77;;;13.00;;